GBK weather

Gbangbatok Airport
Gbangbatok, Southern Province, Sierra Leone

Public forecast

Using degrees Celsius for public forecast. Weather courtesy of forecast.io.

METAR (pilot weather report)

Closest report is Lungi International Airport, 70.2 nm (130.1 km) NW. Retrieved 2019/05/21 15:00 UTC (1 hour ago):

GFLL 211500Z 27009KT 9999 SCT015 FEW027CB 32/23 Q1010 RMK CB-NE

TAF (pilot weather forecast)

Forecast is more than 6 hours old.

Closest forecast is Lungi International Airport, 70.2 nm (130.1 km) NW. Retrieved 2019/05/21 06:51 UTC (9 hours ago):

TAF TAF GFLL 210500Z 2106/2212 27008KT 9999 BKN012 FEW027CB TEMPO 2113/2117 30010KT SCT014 FEW028CB TEMPO 2120/2200 18012KT 8000 TS/TSRA BKN010 FEW026CB